createdAt,value
2022-11-09T00:01:38.135Z,3.00
2022-11-09T00:04:06.276Z,3.00
2022-11-09T00:06:34.281Z,2.58
2022-11-09T00:09:07.472Z,2.65
2022-11-09T00:11:34.635Z,2.90
2022-11-09T00:14:01.326Z,2.70
2022-11-09T00:16:28.054Z,2.72
2022-11-09T00:18:56.046Z,3.08
2022-11-09T00:21:24.629Z,3.03
2022-11-09T00:23:51.884Z,2.70
2022-11-09T00:26:19.739Z,2.90
2022-11-09T00:28:46.387Z,2.80
2022-11-09T00:31:15.939Z,2.85
2022-11-09T00:33:51.351Z,2.80
2022-11-09T00:36:19.243Z,2.95
2022-11-09T00:38:49.951Z,2.67
2022-11-09T00:41:17.055Z,2.70
2022-11-09T00:43:43.758Z,2.70
2022-11-09T00:46:10.473Z,2.88
2022-11-09T00:48:37.660Z,2.90
2022-11-09T00:51:05.127Z,2.90
2022-11-09T00:53:32.062Z,2.70
2022-11-09T00:56:04.803Z,2.60
2022-11-09T00:58:35.703Z,2.33
2022-11-09T01:01:11.569Z,2.40
2022-11-09T01:03:38.560Z,2.92
2022-11-09T01:06:06.008Z,3.70
2022-11-09T01:08:34.412Z,2.42
2022-11-09T01:11:08.954Z,2.60
2022-11-09T01:13:37.150Z,2.40
2022-11-09T01:16:10.414Z,2.67
2022-11-09T01:18:38.399Z,3.10
2022-11-09T01:21:08.132Z,3.17
2022-11-09T01:23:35.400Z,2.88
2022-11-09T01:26:04.674Z,2.80
2022-11-09T01:28:31.616Z,3.10
2022-11-09T01:31:03.309Z,2.38
2022-11-09T01:33:32.406Z,2.42
2022-11-09T01:36:08.242Z,2.28
2022-11-09T01:38:36.901Z,1.55
2022-11-09T01:41:04.704Z,1.60
2022-11-09T01:43:31.543Z,1.48
2022-11-09T01:46:06.613Z,1.80
2022-11-09T01:48:50.219Z,1.50
2022-11-09T01:51:33.941Z,1.75
2022-11-09T01:54:12.995Z,2.05
2022-11-09T01:56:40.581Z,1.70
2022-11-09T01:59:15.337Z,1.67
2022-11-09T02:01:43.502Z,1.75
2022-11-09T02:04:16.147Z,1.70
2022-11-09T02:06:45.709Z,1.80
2022-11-09T02:09:18.265Z,1.70
2022-11-09T02:11:44.889Z,1.50
2022-11-09T02:14:14.049Z,1.55
2022-11-09T02:16:41.871Z,1.80
2022-11-09T02:19:08.600Z,1.70
2022-11-09T02:21:35.237Z,1.50
2022-11-09T02:24:02.006Z,1.52
2022-11-09T02:26:38.999Z,1.58
2022-11-09T02:29:08.912Z,1.30
2022-11-09T02:31:39.687Z,1.33
2022-11-09T02:34:13.403Z,1.27
2022-11-09T02:36:43.495Z,1.25
2022-11-09T02:39:19.196Z,1.33
2022-11-09T02:42:10.411Z,1.30
2022-11-09T02:44:48.013Z,1.50
2022-11-09T02:47:15.469Z,1.40
2022-11-09T02:49:42.875Z,1.30
2022-11-09T02:52:09.474Z,1.40
2022-11-09T02:54:36.146Z,1.75
2022-11-09T02:57:04.117Z,1.50
2022-11-09T02:59:31.867Z,1.40
2022-11-09T03:01:58.867Z,1.40
2022-11-09T03:04:27.346Z,1.33
2022-11-09T03:06:54.603Z,1.50
2022-11-09T03:09:21.907Z,1.50
2022-11-09T03:11:50.567Z,1.58
2022-11-09T03:14:17.782Z,1.15
2022-11-09T03:16:51.009Z,1.30
2022-11-09T03:19:18.503Z,1.00
2022-11-09T03:21:47.115Z,1.10
2022-11-09T03:24:13.816Z,1.23
2022-11-09T03:26:41.548Z,1.35
2022-11-09T03:29:08.646Z,1.05
2022-11-09T03:31:35.864Z,1.00
2022-11-09T03:34:05.711Z,1.05
2022-11-09T03:36:35.214Z,1.40
2022-11-09T03:39:01.836Z,1.95
2022-11-09T03:41:28.447Z,1.40
2022-11-09T03:43:55.160Z,1.38
2022-11-09T03:46:21.720Z,1.00
2022-11-09T03:48:48.302Z,1.23
2022-11-09T03:51:14.870Z,1.10
2022-11-09T03:53:41.660Z,1.02
2022-11-09T03:56:08.583Z,0.80
2022-11-09T03:58:35.266Z,1.25
2022-11-09T04:01:01.885Z,1.55
2022-11-09T04:03:28.897Z,1.90
2022-11-09T04:05:57.839Z,1.50
2022-11-09T04:08:24.583Z,1.20
2022-11-09T04:10:51.169Z,0.80
2022-11-09T04:13:18.214Z,0.90
2022-11-09T04:15:45.111Z,0.88
2022-11-09T04:18:14.304Z,0.82
2022-11-09T04:20:41.760Z,0.75
2022-11-09T04:23:11.502Z,1.00
2022-11-09T04:25:39.597Z,0.93
2022-11-09T04:28:08.050Z,1.02
2022-11-09T04:30:36.448Z,1.02
2022-11-09T04:33:03.840Z,0.88
2022-11-09T04:35:32.207Z,0.80
2022-11-09T04:38:01.838Z,1.00
2022-11-09T04:40:30.962Z,1.00
2022-11-09T04:43:02.146Z,1.10
2022-11-09T04:45:28.986Z,0.90
2022-11-09T04:47:59.848Z,1.00
2022-11-09T04:50:27.810Z,1.13
2022-11-09T04:52:54.661Z,0.90
2022-11-09T04:55:21.492Z,0.82
2022-11-09T04:57:48.130Z,0.98
2022-11-09T05:00:15.004Z,0.85
2022-11-09T05:02:41.579Z,0.90
2022-11-09T05:05:08.312Z,2.33
2022-11-09T05:07:34.928Z,2.55
2022-11-09T05:10:01.573Z,1.27
2022-11-09T05:12:28.169Z,1.10
2022-11-09T05:14:54.801Z,1.40
2022-11-09T05:17:21.391Z,1.40
2022-11-09T05:19:48.894Z,1.30
2022-11-09T05:22:37.265Z,1.02
2022-11-09T05:25:04.263Z,1.33
2022-11-09T05:27:30.843Z,1.17
2022-11-09T05:29:57.419Z,1.50
2022-11-09T05:32:24.005Z,1.13
2022-11-09T05:34:50.593Z,1.52
2022-11-09T05:37:18.112Z,1.35
2022-11-09T05:39:44.766Z,1.35
2022-11-09T05:42:11.354Z,1.80
2022-11-09T05:44:38.014Z,1.60
2022-11-09T05:47:04.644Z,2.22
2022-11-09T05:49:31.240Z,1.50
2022-11-09T05:51:57.876Z,2.63
2022-11-09T05:54:24.828Z,2.30
2022-11-09T05:56:51.485Z,2.58
2022-11-09T05:59:18.075Z,2.50
2022-11-09T06:01:44.704Z,2.78
2022-11-09T06:04:11.299Z,2.03
2022-11-09T06:06:37.943Z,1.92
2022-11-09T06:09:04.572Z,1.45
2022-11-09T06:11:31.186Z,1.15
2022-11-09T06:13:57.834Z,1.20
2022-11-09T06:16:24.574Z,1.40
2022-11-09T06:18:51.337Z,1.10
2022-11-09T06:21:18.503Z,1.30
2022-11-09T06:23:45.146Z,1.38
2022-11-09T06:26:12.525Z,1.50
2022-11-09T06:28:40.627Z,1.60
2022-11-09T06:31:10.849Z,1.70
2022-11-09T06:33:37.582Z,1.73
2022-11-09T06:36:05.292Z,1.60
2022-11-09T06:38:31.951Z,1.30
2022-11-09T06:41:00.267Z,1.52
2022-11-09T06:43:27.890Z,1.48
2022-11-09T06:45:54.625Z,1.58
2022-11-09T06:48:22.013Z,1.70
2022-11-09T06:50:49.308Z,1.42
2022-11-09T06:53:17.136Z,1.40
2022-11-09T06:55:49.042Z,1.63
2022-11-09T06:58:17.184Z,1.40
2022-11-09T07:00:45.081Z,1.23
2022-11-09T07:03:16.188Z,1.30
2022-11-09T07:05:43.552Z,1.00
2022-11-09T07:08:11.141Z,1.27
2022-11-09T07:10:37.958Z,1.40
2022-11-09T07:13:05.605Z,1.50
2022-11-09T07:15:33.217Z,1.63
2022-11-09T07:18:00.787Z,1.83
2022-11-09T07:20:27.874Z,1.80
2022-11-09T07:22:54.819Z,1.67
2022-11-09T07:25:21.848Z,2.00
2022-11-09T07:27:48.538Z,2.33
2022-11-09T07:30:15.466Z,2.20
2022-11-09T07:35:29.882Z,2.60
2022-11-09T07:38:01.228Z,3.03
2022-11-09T07:40:27.959Z,2.55
2022-11-09T07:42:58.328Z,2.08
2022-11-09T07:45:26.012Z,1.38
2022-11-09T07:48:01.320Z,1.13
2022-11-09T07:50:29.829Z,1.40
2022-11-09T07:52:58.020Z,3.05
2022-11-09T07:55:25.751Z,2.50
2022-11-09T07:58:00.208Z,2.10
2022-11-09T08:00:28.626Z,2.50
2022-11-09T08:02:55.629Z,1.98
2022-11-09T08:05:22.762Z,2.75
2022-11-09T08:07:54.683Z,2.00
2022-11-09T08:10:21.380Z,1.50
2022-11-09T08:12:56.853Z,2.10
2022-11-09T08:15:24.520Z,2.20
2022-11-09T08:17:51.605Z,2.08
2022-11-09T08:20:18.670Z,1.83
2022-11-09T08:22:46.532Z,1.25
2022-11-09T08:25:14.909Z,1.20
2022-11-09T08:27:41.916Z,1.08
2022-11-09T08:30:14.691Z,0.93
2022-11-09T08:32:42.766Z,1.20
2022-11-09T08:35:10.339Z,1.00
2022-11-09T08:37:38.183Z,0.98
2022-11-09T08:40:06.570Z,1.02
2022-11-09T08:42:33.214Z,1.00
2022-11-09T08:45:00.099Z,1.17
2022-11-09T08:47:27.267Z,1.10
2022-11-09T08:49:53.836Z,1.00
2022-11-09T08:52:20.445Z,1.10
2022-11-09T08:54:47.125Z,1.10
2022-11-09T08:57:13.767Z,1.13
2022-11-09T08:59:40.387Z,0.95
2022-11-09T09:02:07.112Z,1.10
2022-11-09T09:04:33.724Z,1.13
2022-11-09T09:07:00.462Z,1.10
2022-11-09T09:09:27.222Z,1.20
2022-11-09T09:11:54.015Z,1.10
2022-11-09T09:14:20.712Z,1.17
2022-11-09T09:16:47.333Z,1.00
2022-11-09T09:19:13.928Z,0.80
2022-11-09T09:21:40.653Z,1.00
2022-11-09T09:24:07.468Z,1.15
2022-11-09T09:26:34.372Z,1.35
2022-11-09T09:29:01.093Z,1.17
2022-11-09T09:31:28.180Z,1.02
2022-11-09T09:33:54.791Z,1.10
2022-11-09T09:36:23.097Z,0.80
2022-11-09T09:38:54.253Z,1.23
2022-11-09T09:41:41.787Z,1.52
2022-11-09T09:44:20.385Z,1.13
2022-11-09T09:47:05.355Z,1.00
2022-11-09T09:49:37.468Z,1.20
2022-11-09T09:52:21.634Z,1.00
2022-11-09T09:55:12.043Z,1.25
2022-11-09T09:57:42.231Z,1.50
2022-11-09T10:00:19.601Z,1.35
2022-11-09T10:02:46.210Z,1.00
2022-11-09T10:05:16.349Z,0.90
2022-11-09T10:07:52.527Z,0.98
2022-11-09T10:10:38.985Z,1.50
2022-11-09T10:13:26.990Z,0.95
2022-11-09T10:16:27.916Z,0.90
2022-11-09T10:19:19.499Z,0.98
2022-11-09T10:22:02.343Z,0.80
2022-11-09T10:24:31.849Z,0.90
2022-11-09T10:27:00.125Z,1.05
2022-11-09T10:29:46.617Z,1.20
2022-11-09T10:32:15.625Z,1.17
2022-11-09T10:35:01.544Z,0.88
2022-11-09T10:37:46.625Z,1.20
2022-11-09T10:40:23.894Z,1.02
2022-11-09T10:43:14.630Z,0.90
2022-11-09T10:46:07.806Z,0.90
2022-11-09T10:48:55.639Z,1.00
2022-11-09T10:51:43.342Z,0.90
2022-11-09T10:54:35.361Z,1.13
2022-11-09T10:57:25.332Z,0.90
2022-11-09T11:00:16.521Z,1.10
2022-11-09T11:03:19.064Z,0.93
2022-11-09T11:06:16.128Z,0.90
2022-11-09T11:09:01.516Z,0.85
2022-11-09T11:11:47.416Z,0.77
2022-11-09T11:14:35.325Z,0.90
2022-11-09T11:17:23.200Z,0.90
2022-11-09T11:20:35.252Z,1.00
2022-11-09T11:23:21.980Z,1.20
2022-11-09T11:26:21.542Z,1.15
2022-11-09T11:29:24.852Z,0.90
2022-11-09T11:32:14.240Z,0.98
2022-11-09T11:35:01.026Z,1.00
2022-11-09T11:38:11.176Z,1.00
2022-11-09T11:41:05.386Z,1.00
2022-11-09T11:44:08.426Z,1.02
2022-11-09T11:47:15.352Z,1.00
2022-11-09T11:50:12.509Z,1.30
2022-11-09T11:53:25.971Z,3.08
2022-11-09T11:56:35.758Z,1.75
2022-11-09T11:59:36.031Z,1.50
2022-11-09T12:02:53.826Z,1.30
2022-11-09T12:06:04.327Z,1.15
2022-11-09T12:09:04.754Z,1.30
2022-11-09T12:11:49.736Z,1.80
2022-11-09T12:15:07.143Z,1.67
2022-11-09T12:17:53.158Z,1.63
2022-11-09T12:21:11.984Z,2.20
2022-11-09T12:24:25.331Z,1.80
2022-11-09T12:27:32.101Z,1.80
2022-11-09T12:30:24.216Z,1.05
2022-11-09T12:33:22.481Z,0.95
2022-11-09T12:36:22.542Z,1.08
2022-11-09T12:39:22.567Z,1.25
2022-11-09T12:42:16.397Z,1.02
2022-11-09T12:45:17.391Z,1.08
2022-11-09T12:48:13.425Z,1.38
2022-11-09T12:51:00.797Z,1.50
2022-11-09T12:53:45.827Z,1.30
2022-11-09T12:56:36.563Z,1.10
2022-11-09T12:59:27.802Z,1.00
2022-11-09T13:02:24.620Z,1.73
2022-11-09T13:05:32.310Z,1.00
2022-11-09T13:08:29.173Z,1.10
2022-11-09T13:11:51.159Z,1.08
2022-11-09T13:14:38.479Z,1.80
2022-11-09T13:17:26.413Z,0.90
2022-11-09T13:26:47.246Z,1.10
2022-11-09T13:29:38.890Z,1.33
2022-11-09T13:32:27.581Z,1.35
2022-11-09T13:35:41.104Z,1.70
2022-11-09T13:38:30.804Z,1.60
2022-11-09T13:41:31.927Z,1.40
2022-11-09T13:44:22.816Z,1.05
2022-11-09T13:47:22.410Z,1.58
2022-11-09T13:50:19.232Z,1.80
2022-11-09T13:53:47.368Z,3.92
2022-11-09T13:56:40.820Z,2.15
2022-11-09T13:59:41.136Z,1.90
2022-11-09T14:02:27.169Z,1.73
2022-11-09T14:05:27.147Z,1.60
2022-11-09T14:08:23.852Z,1.77
2022-11-09T14:11:21.004Z,1.58
2022-11-09T14:14:18.230Z,1.33
2022-11-09T14:17:21.194Z,1.15
2022-11-09T14:20:22.490Z,1.30
2022-11-09T14:23:20.039Z,1.90
2022-11-09T14:26:18.936Z,1.52
2022-11-09T14:29:24.301Z,1.75
2022-11-09T14:32:22.787Z,1.80
2022-11-09T14:35:20.041Z,1.70
2022-11-09T14:38:21.489Z,2.30
2022-11-09T14:41:22.885Z,2.28
2022-11-09T14:44:15.874Z,1.65
2022-11-09T14:47:01.816Z,1.20
2022-11-09T14:49:48.075Z,2.15
2022-11-09T14:52:34.032Z,1.60
2022-11-09T14:55:21.173Z,1.60
2022-11-09T14:58:09.693Z,1.95
2022-11-09T15:01:08.706Z,2.03
2022-11-09T15:04:13.804Z,2.35
2022-11-09T15:07:04.955Z,1.80
2022-11-09T15:09:54.670Z,1.55
2022-11-09T15:12:46.803Z,1.67
2022-11-09T15:15:34.538Z,1.73
2022-11-09T15:18:26.925Z,1.95
2022-11-09T15:21:32.743Z,2.10
2022-11-09T15:24:19.589Z,1.55
2022-11-09T15:27:29.481Z,1.50
2022-11-09T15:30:33.906Z,1.50
2022-11-09T15:33:21.316Z,1.80
2022-11-09T15:36:18.876Z,1.48
2022-11-09T15:39:15.753Z,1.60
2022-11-09T15:42:00.749Z,1.50
2022-11-09T15:44:46.839Z,2.50
2022-11-09T15:47:37.426Z,1.83
2022-11-09T15:50:25.682Z,1.25
2022-11-09T15:53:14.180Z,1.20
2022-11-09T15:56:01.143Z,2.00
2022-11-09T15:58:49.371Z,1.63
2022-11-09T16:01:34.884Z,1.40
2022-11-09T16:04:20.219Z,1.55
2022-11-09T16:07:06.218Z,1.60
2022-11-09T16:09:51.852Z,1.50
2022-11-09T16:12:40.323Z,1.30
2022-11-09T16:15:27.369Z,1.75
2022-11-09T16:18:12.567Z,1.65
2022-11-09T16:20:58.528Z,1.85
2022-11-09T16:23:44.017Z,2.05
2022-11-09T16:26:29.084Z,1.58
2022-11-09T16:29:14.402Z,2.70
2022-11-09T16:32:00.893Z,2.72
2022-11-09T16:34:57.753Z,1.98
2022-11-09T16:37:54.958Z,2.33
2022-11-09T16:40:39.988Z,2.95
2022-11-09T16:43:25.250Z,3.97
2022-11-09T16:46:13.556Z,2.47
2022-11-09T16:49:01.004Z,3.10
2022-11-09T16:51:46.479Z,4.90
2022-11-09T16:54:31.678Z,2.58
2022-11-09T16:57:16.863Z,2.30
2022-11-09T17:00:02.154Z,2.47
2022-11-09T17:02:47.245Z,2.70
2022-11-09T17:05:32.554Z,2.65
2022-11-09T17:08:18.370Z,1.92
2022-11-09T17:11:08.525Z,2.75
2022-11-09T17:13:58.684Z,3.53
2022-11-09T17:16:44.163Z,3.00
2022-11-09T17:19:34.062Z,4.45
2022-11-09T17:22:19.356Z,3.63
2022-11-09T17:25:04.839Z,4.43
2022-11-09T17:27:49.685Z,3.25
2022-11-09T17:30:35.173Z,3.17
2022-11-09T17:33:21.168Z,3.17
2022-11-09T17:36:08.763Z,2.42
2022-11-09T17:38:53.859Z,2.95
2022-11-09T17:41:42.491Z,2.90
2022-11-09T17:44:27.991Z,2.80
2022-11-09T17:47:13.020Z,2.50
2022-11-09T17:49:58.221Z,3.00
2022-11-09T17:52:43.499Z,2.55
2022-11-09T17:55:28.956Z,3.20
2022-11-09T17:58:14.166Z,2.97
2022-11-09T18:01:10.882Z,2.58
2022-11-09T18:03:56.406Z,3.20
2022-11-09T18:06:41.609Z,3.63
2022-11-09T18:09:40.840Z,3.20
2022-11-09T18:12:27.453Z,3.92
2022-11-09T18:15:12.827Z,3.40
2022-11-09T18:17:57.876Z,2.90
2022-11-09T18:20:43.070Z,2.05
2022-11-09T18:23:28.377Z,2.83
2022-11-09T18:26:14.371Z,2.10
2022-11-09T18:29:00.271Z,2.58
2022-11-09T18:31:45.364Z,2.90
2022-11-09T18:34:30.521Z,2.40
2022-11-09T18:37:15.946Z,2.70
2022-11-09T18:40:01.405Z,3.42
2022-11-09T18:42:46.605Z,5.25
2022-11-09T18:45:34.605Z,2.80
2022-11-09T18:48:20.121Z,3.00
2022-11-09T18:51:07.069Z,2.75
2022-11-09T18:53:52.119Z,2.47
2022-11-09T18:56:37.419Z,1.80
2022-11-09T18:59:22.654Z,1.85
2022-11-09T19:02:08.986Z,2.00
2022-11-09T19:04:53.911Z,1.80
2022-11-09T19:07:39.175Z,1.80
2022-11-09T19:10:24.449Z,1.90
2022-11-09T19:13:09.744Z,2.42
2022-11-09T19:15:58.387Z,2.40
2022-11-09T19:18:43.715Z,1.98
2022-11-09T19:21:51.403Z,1.75
2022-11-09T19:24:36.598Z,2.22
2022-11-09T19:27:22.486Z,2.40
2022-11-09T19:30:09.783Z,2.10
2022-11-09T19:32:55.375Z,1.85
2022-11-09T19:35:40.552Z,1.90
2022-11-09T19:38:25.574Z,1.70
2022-11-09T19:41:11.417Z,1.67
2022-11-09T19:44:00.560Z,1.80
2022-11-09T19:46:45.806Z,2.00
2022-11-09T19:49:31.220Z,2.03
2022-11-09T19:52:16.319Z,2.13
2022-11-09T19:55:01.707Z,1.77
2022-11-09T19:57:46.736Z,2.30
2022-11-09T20:00:32.014Z,1.70
2022-11-09T20:03:17.129Z,2.90
2022-11-09T20:06:03.881Z,2.30
2022-11-09T20:08:49.802Z,2.08
2022-11-09T20:11:53.901Z,2.75
2022-11-09T20:14:39.229Z,1.98
2022-11-09T20:17:24.334Z,3.72
2022-11-09T20:20:10.151Z,1.85
2022-11-09T20:22:55.550Z,1.65
2022-11-09T20:25:40.811Z,2.20
2022-11-09T20:28:26.216Z,2.08
2022-11-09T20:31:19.418Z,2.05
2022-11-09T20:34:04.791Z,2.17
2022-11-09T20:36:49.704Z,2.30
2022-11-09T20:39:35.429Z,2.25
2022-11-09T20:42:20.531Z,2.20
2022-11-09T20:45:06.275Z,2.60
2022-11-09T20:48:10.202Z,2.45
2022-11-09T20:51:02.050Z,2.40
2022-11-09T20:53:49.543Z,2.97
2022-11-09T20:56:35.877Z,2.40
2022-11-09T20:59:20.806Z,2.80
2022-11-09T21:02:05.969Z,2.45
2022-11-09T21:04:51.246Z,2.93
2022-11-09T21:07:36.189Z,3.08
2022-11-09T21:10:21.446Z,2.28
2022-11-09T21:13:06.543Z,2.85
2022-11-09T21:15:51.689Z,2.33
2022-11-09T21:18:37.111Z,2.58
2022-11-09T21:21:23.891Z,2.83
2022-11-09T21:24:28.259Z,2.70
2022-11-09T21:27:32.064Z,2.67
2022-11-09T21:30:18.590Z,1.85
2022-11-09T21:33:03.890Z,2.40
2022-11-09T21:35:49.092Z,2.63
2022-11-09T21:38:34.584Z,2.30
2022-11-09T21:41:38.094Z,2.40
2022-11-09T21:44:23.455Z,2.40
2022-11-09T21:47:09.239Z,3.28
2022-11-09T21:49:54.459Z,2.47
2022-11-09T21:52:39.381Z,2.33
2022-11-09T21:55:24.631Z,2.92
2022-11-09T21:58:09.796Z,2.55
2022-11-09T22:00:59.548Z,2.40
2022-11-09T22:03:46.116Z,2.60
2022-11-09T22:06:31.419Z,2.53
2022-11-09T22:09:18.418Z,2.60
2022-11-09T22:12:22.107Z,2.58
2022-11-09T22:15:28.479Z,2.30
2022-11-09T22:18:33.752Z,2.33
2022-11-09T22:21:19.912Z,2.25
2022-11-09T22:24:05.174Z,2.30
2022-11-09T22:26:50.208Z,2.70
2022-11-09T22:29:35.388Z,2.40
2022-11-09T22:32:21.172Z,2.40
2022-11-09T22:35:06.471Z,2.42
2022-11-09T22:37:51.604Z,2.78
2022-11-09T22:40:36.833Z,2.83
2022-11-09T22:43:22.249Z,2.50
2022-11-09T22:46:14.263Z,2.80
2022-11-09T22:48:59.232Z,2.80
2022-11-09T22:51:44.416Z,2.60
2022-11-09T22:54:29.729Z,2.70
2022-11-09T22:57:14.877Z,2.95
2022-11-09T23:00:00.207Z,2.53
2022-11-09T23:02:45.615Z,2.88
2022-11-09T23:05:30.684Z,2.60
2022-11-09T23:08:16.068Z,2.58
2022-11-09T23:11:01.281Z,2.47
2022-11-09T23:13:52.007Z,2.80
2022-11-09T23:16:37.332Z,2.67
2022-11-09T23:19:22.618Z,2.72
2022-11-09T23:22:08.000Z,3.10
2022-11-09T23:25:12.079Z,2.63
2022-11-09T23:27:58.084Z,3.20
2022-11-09T23:30:43.052Z,2.90
2022-11-09T23:33:29.344Z,2.90
2022-11-09T23:36:14.708Z,3.20
2022-11-09T23:39:00.114Z,3.38
2022-11-09T23:41:45.188Z,2.65
2022-11-09T23:44:30.366Z,3.10
2022-11-09T23:47:15.355Z,2.83
2022-11-09T23:50:00.694Z,3.10
2022-11-09T23:52:46.104Z,2.90
2022-11-09T23:55:31.155Z,2.83
2022-11-09T23:58:16.295Z,2.60
